sensor_id;sensor_type;location;lat;lon;timestamp;P1;durP1;ratioP1;P2;durP2;ratioP2
9102;SDS011;4587;51.434;6.788;2024-02-21T00:01:22;27.27;;;14.27;;
9102;SDS011;4587;51.434;6.788;2024-02-21T00:03:47;24.90;;;13.27;;
9102;SDS011;4587;51.434;6.788;2024-02-21T00:06:13;26.13;;;13.90;;
9102;SDS011;4587;51.434;6.788;2024-02-21T00:08:38;24.57;;;13.70;;
9102;SDS011;4587;51.434;6.788;2024-02-21T00:11:04;27.70;;;13.97;;
9102;SDS011;4587;51.434;6.788;2024-02-21T00:13:30;24.07;;;12.97;;
9102;SDS011;4587;51.434;6.788;2024-02-21T00:15:55;22.57;;;12.57;;
9102;SDS011;4587;51.434;6.788;2024-02-21T00:18:21;23.67;;;13.53;;
9102;SDS011;4587;51.434;6.788;2024-02-21T00:20:47;23.30;;;12.93;;
9102;SDS011;4587;51.434;6.788;2024-02-21T00:23:12;26.47;;;13.90;;
9102;SDS011;4587;51.434;6.788;2024-02-21T00:25:38;26.33;;;13.27;;
9102;SDS011;4587;51.434;6.788;2024-02-21T00:28:03;24.13;;;13.67;;
9102;SDS011;4587;51.434;6.788;2024-02-21T00:30:30;34.23;;;14.50;;
9102;SDS011;4587;51.434;6.788;2024-02-21T00:32:56;27.30;;;14.63;;
9102;SDS011;4587;51.434;6.788;2024-02-21T00:35:22;27.77;;;14.10;;
9102;SDS011;4587;51.434;6.788;2024-02-21T00:37:47;27.87;;;13.90;;
9102;SDS011;4587;51.434;6.788;2024-02-21T00:40:13;26.97;;;14.40;;
9102;SDS011;4587;51.434;6.788;2024-02-21T00:42:44;25.83;;;14.40;;
9102;SDS011;4587;51.434;6.788;2024-02-21T00:45:10;27.00;;;13.90;;
9102;SDS011;4587;51.434;6.788;2024-02-21T00:47:36;24.97;;;15.03;;
9102;SDS011;4587;51.434;6.788;2024-02-21T00:50:02;24.13;;;14.00;;
9102;SDS011;4587;51.434;6.788;2024-02-21T00:52:27;25.80;;;14.80;;
9102;SDS011;4587;51.434;6.788;2024-02-21T00:54:53;29.13;;;13.93;;
9102;SDS011;4587;51.434;6.788;2024-02-21T00:57:18;24.33;;;13.87;;
9102;SDS011;4587;51.434;6.788;2024-02-21T00:59:44;27.00;;;14.70;;
9102;SDS011;4587;51.434;6.788;2024-02-21T01:02:09;23.83;;;13.80;;
9102;SDS011;4587;51.434;6.788;2024-02-21T01:04:35;25.33;;;14.93;;
9102;SDS011;4587;51.434;6.788;2024-02-21T01:07:01;27.97;;;14.93;;
9102;SDS011;4587;51.434;6.788;2024-02-21T01:09:27;27.73;;;14.37;;
9102;SDS011;4587;51.434;6.788;2024-02-21T01:11:52;25.77;;;14.83;;
9102;SDS011;4587;51.434;6.788;2024-02-21T01:14:18;24.83;;;13.83;;
9102;SDS011;4587;51.434;6.788;2024-02-21T01:16:43;22.30;;;14.00;;
9102;SDS011;4587;51.434;6.788;2024-02-21T01:19:09;25.43;;;13.90;;
9102;SDS011;4587;51.434;6.788;2024-02-21T01:21:34;24.30;;;13.10;;
9102;SDS011;4587;51.434;6.788;2024-02-21T01:24:00;23.73;;;13.63;;
9102;SDS011;4587;51.434;6.788;2024-02-21T01:26:25;26.60;;;14.13;;
9102;SDS011;4587;51.434;6.788;2024-02-21T01:28:51;24.93;;;13.20;;
9102;SDS011;4587;51.434;6.788;2024-02-21T01:31:17;22.33;;;12.70;;
9102;SDS011;4587;51.434;6.788;2024-02-21T01:33:42;25.83;;;13.63;;
9102;SDS011;4587;51.434;6.788;2024-02-21T01:36:08;21.73;;;12.73;;
9102;SDS011;4587;51.434;6.788;2024-02-21T01:38:33;19.20;;;13.13;;
9102;SDS011;4587;51.434;6.788;2024-02-21T01:40:59;22.93;;;12.33;;
9102;SDS011;4587;51.434;6.788;2024-02-21T01:43:25;23.77;;;12.53;;
9102;SDS011;4587;51.434;6.788;2024-02-21T01:45:54;26.60;;;12.87;;
9102;SDS011;4587;51.434;6.788;2024-02-21T01:48:23;22.30;;;12.67;;
9102;SDS011;4587;51.434;6.788;2024-02-21T01:50:50;22.73;;;12.27;;
9102;SDS011;4587;51.434;6.788;2024-02-21T01:53:16;21.87;;;12.40;;
9102;SDS011;4587;51.434;6.788;2024-02-21T01:55:55;20.53;;;11.60;;
9102;SDS011;4587;51.434;6.788;2024-02-21T01:58:21;24.07;;;12.43;;
9102;SDS011;4587;51.434;6.788;2024-02-21T02:00:48;24.50;;;12.97;;
9102;SDS011;4587;51.434;6.788;2024-02-21T02:03:13;24.93;;;13.30;;
9102;SDS011;4587;51.434;6.788;2024-02-21T02:05:41;21.37;;;11.83;;
9102;SDS011;4587;51.434;6.788;2024-02-21T02:08:08;22.90;;;12.33;;
9102;SDS011;4587;51.434;6.788;2024-02-21T02:10:34;27.27;;;12.40;;
9102;SDS011;4587;51.434;6.788;2024-02-21T02:12:59;22.43;;;11.67;;
9102;SDS011;4587;51.434;6.788;2024-02-21T02:15:25;20.03;;;11.87;;
9102;SDS011;4587;51.434;6.788;2024-02-21T02:17:51;23.10;;;11.90;;
9102;SDS011;4587;51.434;6.788;2024-02-21T02:20:16;21.10;;;12.27;;
9102;SDS011;4587;51.434;6.788;2024-02-21T02:22:42;20.90;;;12.40;;
9102;SDS011;4587;51.434;6.788;2024-02-21T02:25:10;23.43;;;12.43;;
9102;SDS011;4587;51.434;6.788;2024-02-21T02:27:42;22.20;;;12.33;;
9102;SDS011;4587;51.434;6.788;2024-02-21T02:30:09;23.70;;;12.47;;
9102;SDS011;4587;51.434;6.788;2024-02-21T02:32:36;23.20;;;12.00;;
9102;SDS011;4587;51.434;6.788;2024-02-21T02:35:01;27.17;;;12.13;;
9102;SDS011;4587;51.434;6.788;2024-02-21T02:37:27;20.67;;;11.47;;
9102;SDS011;4587;51.434;6.788;2024-02-21T02:39:52;20.63;;;11.07;;
9102;SDS011;4587;51.434;6.788;2024-02-21T02:42:18;26.37;;;11.20;;
9102;SDS011;4587;51.434;6.788;2024-02-21T02:44:43;21.97;;;11.47;;
9102;SDS011;4587;51.434;6.788;2024-02-21T02:47:09;22.63;;;11.67;;
9102;SDS011;4587;51.434;6.788;2024-02-21T02:49:34;21.53;;;11.07;;
9102;SDS011;4587;51.434;6.788;2024-02-21T02:52:00;21.50;;;11.83;;
9102;SDS011;4587;51.434;6.788;2024-02-21T02:54:25;24.60;;;11.93;;
9102;SDS011;4587;51.434;6.788;2024-02-21T02:56:51;22.30;;;10.90;;
9102;SDS011;4587;51.434;6.788;2024-02-21T02:59:16;23.23;;;11.40;;
9102;SDS011;4587;51.434;6.788;2024-02-21T03:01:42;20.97;;;11.90;;
9102;SDS011;4587;51.434;6.788;2024-02-21T03:04:07;24.40;;;11.33;;
9102;SDS011;4587;51.434;6.788;2024-02-21T03:06:33;18.87;;;11.37;;
9102;SDS011;4587;51.434;6.788;2024-02-21T03:08:58;23.57;;;11.07;;
9102;SDS011;4587;51.434;6.788;2024-02-21T03:11:25;21.73;;;10.77;;
9102;SDS011;4587;51.434;6.788;2024-02-21T03:13:54;23.30;;;11.23;;
9102;SDS011;4587;51.434;6.788;2024-02-21T03:16:21;24.43;;;11.80;;
9102;SDS011;4587;51.434;6.788;2024-02-21T03:18:47;20.53;;;10.67;;
9102;SDS011;4587;51.434;6.788;2024-02-21T03:21:13;23.73;;;11.30;;
9102;SDS011;4587;51.434;6.788;2024-02-21T03:23:39;23.80;;;11.10;;
9102;SDS011;4587;51.434;6.788;2024-02-21T03:26:04;24.67;;;11.83;;
9102;SDS011;4587;51.434;6.788;2024-02-21T03:28:30;24.30;;;12.17;;
9102;SDS011;4587;51.434;6.788;2024-02-21T03:30:55;27.50;;;12.30;;
9102;SDS011;4587;51.434;6.788;2024-02-21T03:33:21;25.37;;;12.67;;
9102;SDS011;4587;51.434;6.788;2024-02-21T03:35:48;23.73;;;11.67;;
9102;SDS011;4587;51.434;6.788;2024-02-21T03:38:13;24.40;;;12.17;;
9102;SDS011;4587;51.434;6.788;2024-02-21T03:40:39;21.30;;;11.77;;
9102;SDS011;4587;51.434;6.788;2024-02-21T03:43:05;25.87;;;11.77;;
9102;SDS011;4587;51.434;6.788;2024-02-21T03:45:30;23.53;;;12.33;;
9102;SDS011;4587;51.434;6.788;2024-02-21T03:47:56;19.70;;;10.43;;
9102;SDS011;4587;51.434;6.788;2024-02-21T03:50:21;21.63;;;11.77;;
9102;SDS011;4587;51.434;6.788;2024-02-21T03:52:47;20.27;;;11.57;;
9102;SDS011;4587;51.434;6.788;2024-02-21T03:55:12;21.73;;;11.10;;
9102;SDS011;4587;51.434;6.788;2024-02-21T03:57:38;21.73;;;11.90;;
9102;SDS011;4587;51.434;6.788;2024-02-21T04:00:04;24.17;;;12.40;;
9102;SDS011;4587;51.434;6.788;2024-02-21T04:02:30;23.27;;;12.67;;
9102;SDS011;4587;51.434;6.788;2024-02-21T04:04:56;21.87;;;12.50;;
9102;SDS011;4587;51.434;6.788;2024-02-21T04:07:21;23.13;;;12.87;;
9102;SDS011;4587;51.434;6.788;2024-02-21T04:09:47;27.03;;;12.53;;
9102;SDS011;4587;51.434;6.788;2024-02-21T04:12:12;18.23;;;11.20;;
9102;SDS011;4587;51.434;6.788;2024-02-21T04:14:38;27.27;;;12.60;;
9102;SDS011;4587;51.434;6.788;2024-02-21T04:17:04;24.33;;;12.50;;
9102;SDS011;4587;51.434;6.788;2024-02-21T04:19:30;23.07;;;12.60;;
9102;SDS011;4587;51.434;6.788;2024-02-21T04:21:56;24.30;;;12.50;;
9102;SDS011;4587;51.434;6.788;2024-02-21T04:24:21;21.17;;;12.07;;
9102;SDS011;4587;51.434;6.788;2024-02-21T04:26:47;21.43;;;12.13;;
9102;SDS011;4587;51.434;6.788;2024-02-21T04:29:12;22.70;;;10.70;;
9102;SDS011;4587;51.434;6.788;2024-02-21T04:31:38;17.70;;;9.63;;
9102;SDS011;4587;51.434;6.788;2024-02-21T04:34:05;18.97;;;10.33;;
9102;SDS011;4587;51.434;6.788;2024-02-21T04:36:31;19.63;;;10.20;;
9102;SDS011;4587;51.434;6.788;2024-02-21T04:38:57;23.63;;;10.90;;
9102;SDS011;4587;51.434;6.788;2024-02-21T04:41:23;18.30;;;10.00;;
9102;SDS011;4587;51.434;6.788;2024-02-21T04:43:49;18.50;;;9.50;;
9102;SDS011;4587;51.434;6.788;2024-02-21T04:46:15;20.43;;;10.07;;
9102;SDS011;4587;51.434;6.788;2024-02-21T04:48:40;17.20;;;9.00;;
9102;SDS011;4587;51.434;6.788;2024-02-21T04:51:06;16.17;;;8.90;;
9102;SDS011;4587;51.434;6.788;2024-02-21T04:53:31;21.10;;;9.90;;
9102;SDS011;4587;51.434;6.788;2024-02-21T04:55:57;17.50;;;9.93;;
9102;SDS011;4587;51.434;6.788;2024-02-21T04:58:23;16.67;;;8.40;;
9102;SDS011;4587;51.434;6.788;2024-02-21T05:00:48;19.40;;;8.97;;
9102;SDS011;4587;51.434;6.788;2024-02-21T05:03:14;17.90;;;8.97;;
9102;SDS011;4587;51.434;6.788;2024-02-21T05:05:39;14.70;;;8.70;;
9102;SDS011;4587;51.434;6.788;2024-02-21T05:08:05;20.97;;;9.17;;
9102;SDS011;4587;51.434;6.788;2024-02-21T05:10:31;17.97;;;8.90;;
9102;SDS011;4587;51.434;6.788;2024-02-21T05:12:57;18.47;;;8.67;;
9102;SDS011;4587;51.434;6.788;2024-02-21T05:15:23;16.53;;;8.70;;
9102;SDS011;4587;51.434;6.788;2024-02-21T05:17:48;13.87;;;8.10;;
9102;SDS011;4587;51.434;6.788;2024-02-21T05:20:14;17.20;;;8.10;;
9102;SDS011;4587;51.434;6.788;2024-02-21T05:22:40;14.60;;;8.23;;
9102;SDS011;4587;51.434;6.788;2024-02-21T05:25:05;17.23;;;8.53;;
9102;SDS011;4587;51.434;6.788;2024-02-21T05:27:31;15.10;;;8.03;;
9102;SDS011;4587;51.434;6.788;2024-02-21T05:29:57;19.73;;;8.10;;
9102;SDS011;4587;51.434;6.788;2024-02-21T05:32:23;15.00;;;7.37;;
9102;SDS011;4587;51.434;6.788;2024-02-21T05:34:49;14.60;;;7.80;;
9102;SDS011;4587;51.434;6.788;2024-02-21T05:37:15;15.63;;;8.17;;
9102;SDS011;4587;51.434;6.788;2024-02-21T05:39:41;15.63;;;8.23;;
9102;SDS011;4587;51.434;6.788;2024-02-21T05:42:07;14.60;;;7.97;;
9102;SDS011;4587;51.434;6.788;2024-02-21T05:44:32;16.57;;;7.93;;
9102;SDS011;4587;51.434;6.788;2024-02-21T05:46:58;14.43;;;8.20;;
9102;SDS011;4587;51.434;6.788;2024-02-21T05:49:23;14.40;;;7.60;;
9102;SDS011;4587;51.434;6.788;2024-02-21T05:51:49;15.37;;;7.60;;
9102;SDS011;4587;51.434;6.788;2024-02-21T05:54:14;14.13;;;7.30;;
9102;SDS011;4587;51.434;6.788;2024-02-21T05:56:43;16.80;;;8.20;;
9102;SDS011;4587;51.434;6.788;2024-02-21T05:59:10;15.23;;;7.33;;
9102;SDS011;4587;51.434;6.788;2024-02-21T06:01:35;17.27;;;7.57;;
9102;SDS011;4587;51.434;6.788;2024-02-21T06:04:01;15.00;;;7.43;;
9102;SDS011;4587;51.434;6.788;2024-02-21T06:06:26;15.90;;;7.23;;
9102;SDS011;4587;51.434;6.788;2024-02-21T06:08:52;13.17;;;7.30;;
9102;SDS011;4587;51.434;6.788;2024-02-21T06:11:18;16.60;;;8.07;;
9102;SDS011;4587;51.434;6.788;2024-02-21T06:13:43;16.97;;;7.37;;
9102;SDS011;4587;51.434;6.788;2024-02-21T06:16:09;16.47;;;7.20;;
9102;SDS011;4587;51.434;6.788;2024-02-21T06:18:35;14.50;;;7.10;;
9102;SDS011;4587;51.434;6.788;2024-02-21T06:21:02;12.93;;;6.50;;
9102;SDS011;4587;51.434;6.788;2024-02-21T06:23:28;15.93;;;7.43;;
9102;SDS011;4587;51.434;6.788;2024-02-21T06:25:54;15.07;;;7.03;;
9102;SDS011;4587;51.434;6.788;2024-02-21T06:28:19;15.03;;;8.00;;
9102;SDS011;4587;51.434;6.788;2024-02-21T06:30:45;18.10;;;7.10;;
9102;SDS011;4587;51.434;6.788;2024-02-21T06:33:11;14.63;;;6.97;;
9102;SDS011;4587;51.434;6.788;2024-02-21T06:35:36;16.53;;;6.80;;
9102;SDS011;4587;51.434;6.788;2024-02-21T06:38:05;14.47;;;6.40;;
9102;SDS011;4587;51.434;6.788;2024-02-21T06:40:32;14.33;;;7.43;;
9102;SDS011;4587;51.434;6.788;2024-02-21T06:43:03;14.27;;;7.07;;
9102;SDS011;4587;51.434;6.788;2024-02-21T06:45:29;15.60;;;6.20;;
9102;SDS011;4587;51.434;6.788;2024-02-21T06:47:55;13.83;;;6.63;;
9102;SDS011;4587;51.434;6.788;2024-02-21T06:50:20;14.37;;;7.07;;
9102;SDS011;4587;51.434;6.788;2024-02-21T06:52:46;12.67;;;6.93;;
9102;SDS011;4587;51.434;6.788;2024-02-21T06:55:11;14.20;;;7.03;;
9102;SDS011;4587;51.434;6.788;2024-02-21T06:57:37;17.27;;;7.10;;
9102;SDS011;4587;51.434;6.788;2024-02-21T07:00:03;15.23;;;7.70;;
9102;SDS011;4587;51.434;6.788;2024-02-21T07:02:32;17.73;;;7.27;;
9102;SDS011;4587;51.434;6.788;2024-02-21T07:04:58;12.07;;;6.60;;
9102;SDS011;4587;51.434;6.788;2024-02-21T07:07:24;15.40;;;7.17;;
9102;SDS011;4587;51.434;6.788;2024-02-21T07:09:49;16.50;;;7.23;;
9102;SDS011;4587;51.434;6.788;2024-02-21T07:12:15;12.30;;;6.23;;
9102;SDS011;4587;51.434;6.788;2024-02-21T07:14:40;17.97;;;6.70;;
9102;SDS011;4587;51.434;6.788;2024-02-21T07:17:06;11.83;;;6.30;;
9102;SDS011;4587;51.434;6.788;2024-02-21T07:19:31;16.83;;;6.50;;
9102;SDS011;4587;51.434;6.788;2024-02-21T07:21:57;11.30;;;6.00;;
9102;SDS011;4587;51.434;6.788;2024-02-21T07:24:22;13.83;;;6.77;;
9102;SDS011;4587;51.434;6.788;2024-02-21T07:26:48;13.57;;;6.50;;
9102;SDS011;4587;51.434;6.788;2024-02-21T07:29:13;16.00;;;6.00;;
9102;SDS011;4587;51.434;6.788;2024-02-21T07:31:42;14.67;;;6.80;;
9102;SDS011;4587;51.434;6.788;2024-02-21T07:34:09;11.97;;;6.77;;
9102;SDS011;4587;51.434;6.788;2024-02-21T07:36:34;15.33;;;6.37;;
9102;SDS011;4587;51.434;6.788;2024-02-21T07:39:00;14.40;;;6.30;;
9102;SDS011;4587;51.434;6.788;2024-02-21T07:41:26;12.20;;;6.27;;
9102;SDS011;4587;51.434;6.788;2024-02-21T07:43:53;10.40;;;6.17;;
9102;SDS011;4587;51.434;6.788;2024-02-21T07:46:19;12.27;;;5.40;;
9102;SDS011;4587;51.434;6.788;2024-02-21T07:48:47;13.80;;;5.93;;
9102;SDS011;4587;51.434;6.788;2024-02-21T07:51:13;15.83;;;6.40;;
9102;SDS011;4587;51.434;6.788;2024-02-21T07:53:39;9.40;;;5.70;;
9102;SDS011;4587;51.434;6.788;2024-02-21T07:56:09;18.27;;;6.30;;
9102;SDS011;4587;51.434;6.788;2024-02-21T07:58:38;9.73;;;5.80;;
9102;SDS011;4587;51.434;6.788;2024-02-21T08:01:07;11.53;;;5.60;;
9102;SDS011;4587;51.434;6.788;2024-02-21T08:03:33;10.93;;;6.13;;
9102;SDS011;4587;51.434;6.788;2024-02-21T08:05:59;15.67;;;6.47;;
9102;SDS011;4587;51.434;6.788;2024-02-21T08:08:24;14.00;;;5.83;;
9102;SDS011;4587;51.434;6.788;2024-02-21T08:10:51;11.50;;;5.30;;
9102;SDS011;4587;51.434;6.788;2024-02-21T08:13:17;9.97;;;5.13;;
9102;SDS011;4587;51.434;6.788;2024-02-21T08:15:43;9.43;;;5.43;;
9102;SDS011;4587;51.434;6.788;2024-02-21T08:18:08;10.67;;;5.20;;
9102;SDS011;4587;51.434;6.788;2024-02-21T08:20:34;11.23;;;5.40;;
9102;SDS011;4587;51.434;6.788;2024-02-21T08:23:00;11.83;;;5.73;;
9102;SDS011;4587;51.434;6.788;2024-02-21T08:25:26;13.20;;;5.50;;
9102;SDS011;4587;51.434;6.788;2024-02-21T08:27:54;13.90;;;5.60;;
9102;SDS011;4587;51.434;6.788;2024-02-21T08:30:22;12.63;;;4.93;;
9102;SDS011;4587;51.434;6.788;2024-02-21T08:32:47;14.97;;;5.13;;
9102;SDS011;4587;51.434;6.788;2024-02-21T08:35:13;12.47;;;5.47;;
9102;SDS011;4587;51.434;6.788;2024-02-21T08:37:39;14.90;;;5.93;;
9102;SDS011;4587;51.434;6.788;2024-02-21T08:40:04;15.17;;;5.97;;
9102;SDS011;4587;51.434;6.788;2024-02-21T08:42:34;14.37;;;5.90;;
9102;SDS011;4587;51.434;6.788;2024-02-21T08:45:00;16.37;;;5.97;;
9102;SDS011;4587;51.434;6.788;2024-02-21T08:47:26;12.90;;;5.53;;
9102;SDS011;4587;51.434;6.788;2024-02-21T08:49:52;16.77;;;6.13;;
9102;SDS011;4587;51.434;6.788;2024-02-21T08:52:17;11.80;;;5.90;;
9102;SDS011;4587;51.434;6.788;2024-02-21T08:54:43;11.83;;;5.33;;
9102;SDS011;4587;51.434;6.788;2024-02-21T08:57:09;11.90;;;5.30;;
9102;SDS011;4587;51.434;6.788;2024-02-21T08:59:34;14.37;;;4.97;;
9102;SDS011;4587;51.434;6.788;2024-02-21T09:02:00;12.63;;;5.10;;
9102;SDS011;4587;51.434;6.788;2024-02-21T09:04:25;15.43;;;5.67;;
9102;SDS011;4587;51.434;6.788;2024-02-21T09:06:51;13.77;;;5.57;;
9102;SDS011;4587;51.434;6.788;2024-02-21T09:09:17;11.30;;;4.80;;
9102;SDS011;4587;51.434;6.788;2024-02-21T09:11:43;12.77;;;5.47;;
9102;SDS011;4587;51.434;6.788;2024-02-21T09:14:08;13.73;;;5.20;;
9102;SDS011;4587;51.434;6.788;2024-02-21T09:16:34;10.57;;;4.97;;
9102;SDS011;4587;51.434;6.788;2024-02-21T09:18:59;13.67;;;5.13;;
9102;SDS011;4587;51.434;6.788;2024-02-21T09:21:25;11.73;;;5.00;;
9102;SDS011;4587;51.434;6.788;2024-02-21T09:23:51;7.80;;;4.60;;
9102;SDS011;4587;51.434;6.788;2024-02-21T09:26:16;14.37;;;5.20;;
9102;SDS011;4587;51.434;6.788;2024-02-21T09:28:42;13.10;;;5.07;;
9102;SDS011;4587;51.434;6.788;2024-02-21T09:31:09;9.67;;;5.37;;
9102;SDS011;4587;51.434;6.788;2024-02-21T09:33:34;12.83;;;4.87;;
9102;SDS011;4587;51.434;6.788;2024-02-21T09:36:00;12.73;;;4.40;;
9102;SDS011;4587;51.434;6.788;2024-02-21T09:38:26;12.53;;;4.50;;
9102;SDS011;4587;51.434;6.788;2024-02-21T09:40:54;6.90;;;3.90;;
9102;SDS011;4587;51.434;6.788;2024-02-21T09:43:25;11.30;;;4.60;;
9102;SDS011;4587;51.434;6.788;2024-02-21T09:45:51;10.47;;;4.37;;
9102;SDS011;4587;51.434;6.788;2024-02-21T09:48:30;8.90;;;4.07;;
9102;SDS011;4587;51.434;6.788;2024-02-21T09:51:17;8.03;;;3.63;;
9102;SDS011;4587;51.434;6.788;2024-02-21T09:53:44;12.77;;;4.30;;
9102;SDS011;4587;51.434;6.788;2024-02-21T09:56:10;11.57;;;3.73;;
9102;SDS011;4587;51.434;6.788;2024-02-21T09:58:36;10.53;;;3.77;;
9102;SDS011;4587;51.434;6.788;2024-02-21T10:01:03;6.90;;;3.70;;
9102;SDS011;4587;51.434;6.788;2024-02-21T10:03:31;8.63;;;3.80;;
9102;SDS011;4587;51.434;6.788;2024-02-21T10:06:00;10.57;;;4.10;;
9102;SDS011;4587;51.434;6.788;2024-02-21T10:08:26;9.07;;;4.03;;
9102;SDS011;4587;51.434;6.788;2024-02-21T10:10:52;9.00;;;3.70;;
9102;SDS011;4587;51.434;6.788;2024-02-21T10:13:25;8.23;;;4.23;;
9102;SDS011;4587;51.434;6.788;2024-02-21T10:16:05;8.47;;;3.53;;
9102;SDS011;4587;51.434;6.788;2024-02-21T10:18:32;7.30;;;3.70;;
9102;SDS011;4587;51.434;6.788;2024-02-21T10:21:04;11.47;;;3.70;;
9102;SDS011;4587;51.434;6.788;2024-02-21T10:23:41;6.97;;;3.87;;
9102;SDS011;4587;51.434;6.788;2024-02-21T10:26:10;8.20;;;3.53;;
9102;SDS011;4587;51.434;6.788;2024-02-21T10:28:36;6.87;;;3.37;;
9102;SDS011;4587;51.434;6.788;2024-02-21T10:31:06;9.40;;;4.50;;
9102;SDS011;4587;51.434;6.788;2024-02-21T10:33:36;8.83;;;3.80;;
9102;SDS011;4587;51.434;6.788;2024-02-21T10:36:08;9.60;;;3.73;;
9102;SDS011;4587;51.434;6.788;2024-02-21T10:38:35;7.70;;;3.27;;
9102;SDS011;4587;51.434;6.788;2024-02-21T10:41:05;7.07;;;3.40;;
9102;SDS011;4587;51.434;6.788;2024-02-21T10:43:38;7.10;;;3.00;;
9102;SDS011;4587;51.434;6.788;2024-02-21T10:46:06;6.53;;;3.07;;
9102;SDS011;4587;51.434;6.788;2024-02-21T10:48:38;9.17;;;3.37;;
9102;SDS011;4587;51.434;6.788;2024-02-21T10:51:12;8.07;;;3.10;;
9102;SDS011;4587;51.434;6.788;2024-02-21T10:56:47;7.10;;;3.40;;
9102;SDS011;4587;51.434;6.788;2024-02-21T10:59:16;5.87;;;3.30;;
9102;SDS011;4587;51.434;6.788;2024-02-21T11:01:43;5.63;;;3.13;;
9102;SDS011;4587;51.434;6.788;2024-02-21T11:04:08;9.47;;;4.30;;
9102;SDS011;4587;51.434;6.788;2024-02-21T11:06:37;8.23;;;4.07;;
9102;SDS011;4587;51.434;6.788;2024-02-21T11:09:04;10.10;;;3.33;;
9102;SDS011;4587;51.434;6.788;2024-02-21T11:11:34;6.67;;;3.30;;
9102;SDS011;4587;51.434;6.788;2024-02-21T11:14:10;8.77;;;3.23;;
9102;SDS011;4587;51.434;6.788;2024-02-21T11:16:42;7.93;;;3.83;;
9102;SDS011;4587;51.434;6.788;2024-02-21T11:19:08;6.83;;;3.20;;
9102;SDS011;4587;51.434;6.788;2024-02-21T11:21:36;10.10;;;3.70;;
9102;SDS011;4587;51.434;6.788;2024-02-21T11:24:02;14.10;;;4.50;;
9102;SDS011;4587;51.434;6.788;2024-02-21T11:26:29;9.37;;;3.50;;
9102;SDS011;4587;51.434;6.788;2024-02-21T11:28:59;8.10;;;3.20;;
9102;SDS011;4587;51.434;6.788;2024-02-21T11:31:37;8.07;;;3.43;;
9102;SDS011;4587;51.434;6.788;2024-02-21T11:34:04;8.67;;;3.27;;
9102;SDS011;4587;51.434;6.788;2024-02-21T11:36:29;11.33;;;3.43;;
9102;SDS011;4587;51.434;6.788;2024-02-21T11:38:55;7.83;;;3.37;;
9102;SDS011;4587;51.434;6.788;2024-02-21T11:41:29;9.93;;;3.63;;
9102;SDS011;4587;51.434;6.788;2024-02-21T11:43:55;9.27;;;3.60;;
9102;SDS011;4587;51.434;6.788;2024-02-21T11:46:20;6.13;;;3.13;;
9102;SDS011;4587;51.434;6.788;2024-02-21T11:48:46;10.63;;;3.50;;
9102;SDS011;4587;51.434;6.788;2024-02-21T11:51:21;9.97;;;3.83;;
9102;SDS011;4587;51.434;6.788;2024-02-21T11:53:50;8.30;;;3.87;;
9102;SDS011;4587;51.434;6.788;2024-02-21T11:56:17;7.43;;;3.53;;
9102;SDS011;4587;51.434;6.788;2024-02-21T11:58:45;6.43;;;3.27;;
9102;SDS011;4587;51.434;6.788;2024-02-21T12:01:14;7.27;;;3.77;;
9102;SDS011;4587;51.434;6.788;2024-02-21T12:03:39;10.70;;;3.60;;
9102;SDS011;4587;51.434;6.788;2024-02-21T12:06:06;6.77;;;3.50;;
9102;SDS011;4587;51.434;6.788;2024-02-21T12:08:44;8.67;;;3.70;;
9102;SDS011;4587;51.434;6.788;2024-02-21T12:11:20;7.77;;;3.70;;
9102;SDS011;4587;51.434;6.788;2024-02-21T12:13:59;5.97;;;3.40;;
9102;SDS011;4587;51.434;6.788;2024-02-21T12:16:26;11.50;;;4.20;;
9102;SDS011;4587;51.434;6.788;2024-02-21T12:18:53;12.03;;;4.20;;
9102;SDS011;4587;51.434;6.788;2024-02-21T12:21:19;9.70;;;4.27;;
9102;SDS011;4587;51.434;6.788;2024-02-21T12:23:48;9.13;;;3.97;;
9102;SDS011;4587;51.434;6.788;2024-02-21T12:26:13;11.67;;;4.20;;
9102;SDS011;4587;51.434;6.788;2024-02-21T12:28:39;9.50;;;3.90;;
9102;SDS011;4587;51.434;6.788;2024-02-21T12:31:04;8.63;;;4.17;;
9102;SDS011;4587;51.434;6.788;2024-02-21T12:33:30;11.07;;;4.10;;
9102;SDS011;4587;51.434;6.788;2024-02-21T12:35:56;10.90;;;3.93;;
9102;SDS011;4587;51.434;6.788;2024-02-21T12:38:21;7.97;;;3.73;;
9102;SDS011;4587;51.434;6.788;2024-02-21T12:40:47;11.63;;;4.37;;
9102;SDS011;4587;51.434;6.788;2024-02-21T12:43:12;8.83;;;3.80;;
9102;SDS011;4587;51.434;6.788;2024-02-21T12:45:38;9.23;;;3.50;;
9102;SDS011;4587;51.434;6.788;2024-02-21T12:48:03;12.40;;;3.50;;
9102;SDS011;4587;51.434;6.788;2024-02-21T12:50:30;10.47;;;3.70;;
9102;SDS011;4587;51.434;6.788;2024-02-21T12:52:56;11.07;;;3.33;;
9102;SDS011;4587;51.434;6.788;2024-02-21T12:55:23;10.63;;;3.57;;
9102;SDS011;4587;51.434;6.788;2024-02-21T12:57:48;9.10;;;3.50;;
9102;SDS011;4587;51.434;6.788;2024-02-21T13:00:14;9.93;;;3.17;;
9102;SDS011;4587;51.434;6.788;2024-02-21T13:02:40;9.73;;;3.73;;
9102;SDS011;4587;51.434;6.788;2024-02-21T13:05:06;11.33;;;3.83;;
9102;SDS011;4587;51.434;6.788;2024-02-21T13:07:32;7.90;;;3.33;;
9102;SDS011;4587;51.434;6.788;2024-02-21T13:09:58;7.00;;;3.33;;
9102;SDS011;4587;51.434;6.788;2024-02-21T13:12:24;7.60;;;2.73;;
9102;SDS011;4587;51.434;6.788;2024-02-21T13:14:51;7.17;;;3.13;;
9102;SDS011;4587;51.434;6.788;2024-02-21T13:17:16;8.03;;;3.50;;
9102;SDS011;4587;51.434;6.788;2024-02-21T13:19:42;9.40;;;3.27;;
9102;SDS011;4587;51.434;6.788;2024-02-21T13:22:07;6.83;;;3.27;;
9102;SDS011;4587;51.434;6.788;2024-02-21T13:24:34;9.43;;;3.20;;
9102;SDS011;4587;51.434;6.788;2024-02-21T13:26:59;6.07;;;2.60;;
9102;SDS011;4587;51.434;6.788;2024-02-21T13:29:25;7.10;;;2.97;;
9102;SDS011;4587;51.434;6.788;2024-02-21T13:31:50;7.23;;;2.90;;
9102;SDS011;4587;51.434;6.788;2024-02-21T13:34:16;6.80;;;3.10;;
9102;SDS011;4587;51.434;6.788;2024-02-21T13:36:42;8.40;;;2.83;;
9102;SDS011;4587;51.434;6.788;2024-02-21T13:39:08;10.37;;;3.27;;
9102;SDS011;4587;51.434;6.788;2024-02-21T13:41:36;6.50;;;3.10;;
9102;SDS011;4587;51.434;6.788;2024-02-21T13:44:01;6.03;;;3.20;;
9102;SDS011;4587;51.434;6.788;2024-02-21T13:46:28;8.97;;;3.17;;
9102;SDS011;4587;51.434;6.788;2024-02-21T13:48:54;6.77;;;3.20;;
9102;SDS011;4587;51.434;6.788;2024-02-21T13:51:30;7.10;;;3.20;;
9102;SDS011;4587;51.434;6.788;2024-02-21T13:53:55;6.97;;;3.70;;
9102;SDS011;4587;51.434;6.788;2024-02-21T13:56:21;6.80;;;2.87;;
9102;SDS011;4587;51.434;6.788;2024-02-21T13:58:47;8.87;;;3.53;;
9102;SDS011;4587;51.434;6.788;2024-02-21T14:01:12;8.33;;;3.10;;
9102;SDS011;4587;51.434;6.788;2024-02-21T14:03:38;5.63;;;2.77;;
9102;SDS011;4587;51.434;6.788;2024-02-21T14:06:03;7.47;;;3.30;;
9102;SDS011;4587;51.434;6.788;2024-02-21T14:08:30;10.83;;;4.10;;
9102;SDS011;4587;51.434;6.788;2024-02-21T14:10:56;9.90;;;3.00;;
9102;SDS011;4587;51.434;6.788;2024-02-21T14:13:24;7.47;;;3.20;;
9102;SDS011;4587;51.434;6.788;2024-02-21T14:15:49;7.67;;;3.50;;
9102;SDS011;4587;51.434;6.788;2024-02-21T14:18:15;8.03;;;3.00;;
9102;SDS011;4587;51.434;6.788;2024-02-21T14:20:41;9.33;;;3.50;;
9102;SDS011;4587;51.434;6.788;2024-02-21T14:23:07;7.40;;;3.47;;
9102;SDS011;4587;51.434;6.788;2024-02-21T14:25:33;9.53;;;3.57;;
9102;SDS011;4587;51.434;6.788;2024-02-21T14:27:58;9.60;;;3.30;;
9102;SDS011;4587;51.434;6.788;2024-02-21T14:30:25;7.00;;;3.30;;
9102;SDS011;4587;51.434;6.788;2024-02-21T14:32:51;6.80;;;3.10;;
9102;SDS011;4587;51.434;6.788;2024-02-21T14:35:16;7.87;;;3.40;;
9102;SDS011;4587;51.434;6.788;2024-02-21T14:37:42;8.00;;;3.00;;
9102;SDS011;4587;51.434;6.788;2024-02-21T14:40:08;8.50;;;3.40;;
9102;SDS011;4587;51.434;6.788;2024-02-21T14:42:34;8.27;;;3.47;;
9102;SDS011;4587;51.434;6.788;2024-02-21T14:45:00;8.73;;;3.67;;
9102;SDS011;4587;51.434;6.788;2024-02-21T14:47:31;9.20;;;3.60;;
9102;SDS011;4587;51.434;6.788;2024-02-21T14:49:57;7.13;;;3.60;;
9102;SDS011;4587;51.434;6.788;2024-02-21T14:52:23;8.03;;;3.57;;
9102;SDS011;4587;51.434;6.788;2024-02-21T14:54:52;7.00;;;3.43;;
9102;SDS011;4587;51.434;6.788;2024-02-21T14:57:18;6.77;;;3.13;;
9102;SDS011;4587;51.434;6.788;2024-02-21T14:59:45;5.50;;;3.00;;